首页
METAR-TAF:

METAR-TAF

机场 :

摩爾曼斯克, 俄罗斯

纬度: 68-58N, 经度: 033-03E, 海拔: 51米

当前天气观测

该预报发布于33分钟前的10:30 UTC
风速6节,风向,在南转南东西之间变化
温度 2°C
湿度 93%
气压 1012 hPa
能見度: 9000
多云层高于1300英尺, 积雨云.
小阵雨, 雪

METAR: ULMM 151030Z 19003MPS 160V260 9000 -SHRASN BKN013CB 02/01 Q1012 R13/290050 NOSIG RMK QFE752

时间: 14:03 (11:03 UTC)

预报

该预报发布于3小时和8分钟前的07:55 UTC
预报有效从15日的 09点(UTC)到 16日的 09点(UTC)
风速10节,风向,有时为19节阵风
能見度: 4000
多云层高于1100英尺, 积雨云.
小阵雪, 雨, 轻雾
短暂存在
从 15日的 09点(UTC)到 15日的 15点(UTC)
风速14节,风向西南,有时为25节阵风
能見度: 0800
多云层高于300英尺
多云层高于1100英尺, 积雨云.
大阵雪, 雨
成为
从 15日的 15点(UTC)到 15日的 16点(UTC)
风速6节,风向西南,有时为17节阵风
短暂存在
从 15日的 16点(UTC)到 16日的 09点(UTC)
风速10节,风向西转西南,有时为19节阵风
能見度: 3100
多云层高于500英尺
多云层高于1100英尺, 积雨云.
小阵雨, 雪

TAF: ULMM 150755Z 1509/1609 19005G10MPS 4000 -SHSNRA BR BKN011CB TEMPO 1509/1515 22007G13MPS 0800 +SHSNRA BKN003 BKN011CB BECMG 1515/1516 23003G09MPS TEMPO 1516/1609 25005G10MPS 3100 -SHRASN BKN005 BKN011CB

超过4000个机场的气象观测和天气预报(METAR&TAF报告)。

可查询的气象台以黄色和红色小点在地图上表示。

将鼠标移到小点上方,可查看气象台名称。

然后点击查看天气观测和预报。

如需切换地图:点击带黑十字的绿色按钮放大地图;点击带横线的绿色按钮缩小地图;或者点击绿色箭头查看邻近地区的地图。


METAR-TAF: